3TE8 weather

Terlingua Airport
Terlingua /Alpine/, Texas, United States

Public forecast

Using degrees Fahrenheit for public forecast. Weather courtesy of forecast.io.

Closest aviation weather report (METAR) to Terlingua Airport

Closest report is Presidio Lely International Airport, 44.8 nm (83.0 km) WNW. Retrieved 2020/06/04 22:55 UTC (19 minutes ago):

KPRS 042255Z AUTO 24007KT 10SM SCT120 40/12 A2982 RMK AO2 T03960120

Closest aviation forecast (TAF) to Terlingua Airport

Closest forecast is Fort Stockton Pecos County Airport, 101.9 nm (188.8 km) NNE. Retrieved 2020/06/04 18:42 UTC (5 hours ago):

TAF KFST 041738Z 0418/0518 14013G20KT P6SM SKC FM050200 15015KT P6SM SKC